Time;durP1;ratioP1;P1;durP2;ratioP2;P2;SDS_P1;SDS_P2;PMS_P1;PMS_P2;Temp;Humidity;BMP_temperature;BMP_pressure;BME280_temperature;BME280_humidity;BME280_pressure;Samples;Min_cycle;Max_cycle;Signal;HPM_P1;HPM_P2
2022/08/01 00:00:57;;;;;;;2.70;2.53;;;21.30;60.60;;;;;;636880;221;26566;-67
2022/08/01 00:03:24;;;;;;;2.53;2.40;;;21.20;60.40;;;;;;637017;225;26582;-67
2022/08/01 00:05:51;;;;;;;2.15;2.05;;;21.20;60.70;;;;;;636999;226;26507;-67
2022/08/01 00:08:18;;;;;;;2.40;2.20;;;21.30;61.00;;;;;;637028;225;26783;-67
2022/08/01 00:10:46;;;;;;;2.33;2.12;;;21.30;61.10;;;;;;636968;225;26536;-67
2022/08/01 00:13:13;;;;;;;2.40;2.30;;;21.20;61.40;;;;;;636727;226;26837;-67
2022/08/01 00:15:40;;;;;;;2.62;2.53;;;21.20;62.10;;;;;;636755;225;26584;-67
2022/08/01 00:18:07;;;;;;;3.03;2.83;;;21.20;62.60;;;;;;636741;225;26798;-67
2022/08/01 00:20:34;;;;;;;3.60;2.75;;;21.10;63.90;;;;;;636719;225;26551;-67
2022/08/01 00:23:02;;;;;;;2.50;2.40;;;21.10;64.60;;;;;;636719;225;27379;-67
2022/08/01 00:25:29;;;;;;;2.92;2.08;;;21.00;65.60;;;;;;636746;221;26508;-67
2022/08/01 00:27:57;;;;;;;2.45;2.28;;;21.00;66.70;;;;;;636723;226;26603;-67
2022/08/01 00:30:25;;;;;;;2.60;2.40;;;20.90;68.90;;;;;;636711;225;27303;-67
2022/08/01 00:32:52;;;;;;;2.15;2.03;;;20.90;68.90;;;;;;636641;226;26805;-67
2022/08/01 00:35:19;;;;;;;2.17;1.98;;;20.90;70.10;;;;;;636700;226;26585;-67
2022/08/01 00:37:46;;;;;;;2.12;2.03;;;20.90;71.00;;;;;;636732;225;26869;-67
2022/08/01 00:40:13;;;;;;;3.35;2.20;;;20.80;71.70;;;;;;636706;226;26544;-67
2022/08/01 00:42:41;;;;;;;2.62;2.42;;;20.90;73.40;;;;;;634187;225;26842;-67
2022/08/01 00:45:09;;;;;;;3.50;2.58;;;20.70;76.60;;;;;;636652;226;26611;-67
2022/08/01 00:47:36;;;;;;;3.83;2.17;;;20.60;79.10;;;;;;637534;223;26599;-67
2022/08/01 00:50:04;;;;;;;2.40;2.30;;;20.50;82.50;;;;;;638177;225;26823;-67
2022/08/01 00:52:31;;;;;;;1.95;1.85;;;20.30;85.40;;;;;;637944;221;26615;-67
2022/08/01 00:54:59;;;;;;;1.98;1.87;;;20.20;88.20;;;;;;637663;225;26695;-67
2022/08/01 00:57:27;;;;;;;2.55;2.12;;;20.20;90.70;;;;;;637419;221;26541;-67
2022/08/01 00:59:55;;;;;;;2.28;2.17;;;20.10;91.20;;;;;;637317;225;26614;-67
2022/08/01 01:02:22;;;;;;;2.47;2.28;;;20.10;91.20;;;;;;637223;226;26574;-67
2022/08/01 01:04:49;;;;;;;2.80;2.55;;;20.10;91.70;;;;;;637349;221;26794;-67
2022/08/01 01:07:27;;;;;;;2.60;2.50;;;20.10;92.60;;;;;;637012;225;26512;-67
2022/08/01 01:10:16;;;;;;;2.40;2.20;;;20.10;92.30;;;;;;636848;224;26733;-67
2022/08/01 01:12:47;;;;;;;2.40;2.30;;;20.10;92.40;;;;;;631850;226;26602;-67
2022/08/01 01:15:18;;;;;;;2.40;2.30;;;20.10;92.70;;;;;;636932;225;26546;-67
2022/08/01 01:17:57;;;;;;;2.45;2.33;;;20.10;93.10;;;;;;636899;226;26549;-67
2022/08/01 01:20:24;;;;;;;2.85;2.65;;;20.10;93.20;;;;;;636954;226;26530;-67
2022/08/01 01:23:03;;;;;;;2.08;1.95;;;20.10;93.30;;;;;;636615;226;26844;-67
2022/08/01 01:25:47;;;;;;;1.90;1.80;;;20.20;93.50;;;;;;636123;226;26541;-67
2022/08/01 01:28:21;;;;;;;2.30;2.10;;;20.20;93.50;;;;;;632465;226;26599;-67
2022/08/01 01:30:48;;;;;;;2.35;2.25;;;20.20;93.60;;;;;;635906;226;26553;-67
2022/08/01 01:33:16;;;;;;;2.28;2.08;;;20.20;93.90;;;;;;636496;226;26829;-67
2022/08/01 01:35:43;;;;;;;2.28;2.10;;;20.20;94.00;;;;;;636712;225;26543;-67
2022/08/01 01:38:13;;;;;;;2.45;2.25;;;20.20;94.10;;;;;;636530;226;26805;-67
2022/08/01 01:40:40;;;;;;;3.40;2.20;;;20.20;94.20;;;;;;636150;226;26556;-67
2022/08/01 01:43:08;;;;;;;2.30;2.20;;;20.20;94.30;;;;;;636709;225;26850;-66
2022/08/01 01:45:35;;;;;;;2.95;2.42;;;20.20;94.30;;;;;;636628;225;26596;-67
2022/08/01 01:48:02;;;;;;;2.83;2.62;;;20.10;94.40;;;;;;637091;226;26578;-67
2022/08/01 01:50:30;;;;;;;2.53;2.33;;;20.10;94.50;;;;;;637270;224;26560;-67
2022/08/01 01:52:58;;;;;;;2.08;1.98;;;20.10;94.70;;;;;;637185;226;26577;-67
2022/08/01 01:55:25;;;;;;;2.55;2.35;;;20.00;94.90;;;;;;637214;225;26787;-67
2022/08/01 01:57:52;;;;;;;2.28;2.12;;;19.90;95.40;;;;;;637212;225;26544;-67
2022/08/01 02:00:19;;;;;;;2.85;2.33;;;19.80;95.80;;;;;;638413;223;27396;-67
2022/08/01 02:02:46;;;;;;;2.30;2.20;;;19.80;96.00;;;;;;637928;221;26577;-67
2022/08/01 02:05:14;;;;;;;1.80;1.80;;;19.70;96.20;;;;;;637692;225;26808;-67
2022/08/01 02:07:41;;;;;;;2.50;2.35;;;19.70;96.30;;;;;;637585;225;26597;-67
2022/08/01 02:10:08;;;;;;;2.67;2.40;;;19.70;96.50;;;;;;637227;226;27137;-67
2022/08/01 02:12:35;;;;;;;4.00;2.15;;;19.70;96.50;;;;;;637285;226;26641;-67
2022/08/01 02:15:04;;;;;;;2.92;2.00;;;19.60;97.10;;;;;;637288;226;26622;-67
2022/08/01 02:17:32;;;;;;;2.60;2.40;;;19.60;97.10;;;;;;637168;225;26538;-67
2022/08/01 02:19:59;;;;;;;2.42;2.12;;;19.50;97.20;;;;;;637077;225;26800;-67
2022/08/01 02:22:31;;;;;;;2.33;2.22;;;19.50;97.60;;;;;;637040;225;26536;-67
2022/08/01 02:25:01;;;;;;;2.47;2.28;;;19.40;98.20;;;;;;637023;225;26536;-67
2022/08/01 02:27:30;;;;;;;2.25;2.10;;;19.40;98.20;;;;;;636785;226;26554;-66
2022/08/01 02:29:59;;;;;;;1.90;1.80;;;19.30;98.60;;;;;;636655;225;27187;-66
2022/08/01 02:32:28;;;;;;;3.15;2.40;;;19.40;98.80;;;;;;636928;225;26545;-66
2022/08/01 02:34:55;;;;;;;2.53;2.30;;;19.40;98.80;;;;;;636563;226;26540;-66
2022/08/01 02:37:22;;;;;;;2.28;2.08;;;19.40;99.00;;;;;;636653;221;26809;-66
2022/08/01 02:39:49;;;;;;;2.50;2.30;;;19.30;99.30;;;;;;636737;226;26588;-66
2022/08/01 02:42:16;;;;;;;2.50;2.40;;;19.30;99.40;;;;;;636503;222;26973;-66
2022/08/01 02:44:44;;;;;;;2.25;2.15;;;19.20;99.50;;;;;;636540;226;26544;-66
2022/08/01 02:47:11;;;;;;;2.42;2.20;;;19.20;99.90;;;;;;636732;225;26837;-66
2022/08/01 02:49:39;;;;;;;2.25;2.12;;;19.20;99.90;;;;;;636747;225;26587;-66
2022/08/01 02:52:06;;;;;;;2.35;2.15;;;19.20;99.90;;;;;;636318;226;26876;-66
2022/08/01 02:54:33;;;;;;;2.20;2.10;;;19.30;99.90;;;;;;636574;225;26595;-66
2022/08/01 02:57:00;;;;;;;2.60;2.40;;;19.30;99.90;;;;;;636773;225;26826;-66
2022/08/01 02:59:29;;;;;;;2.00;1.90;;;19.30;99.90;;;;;;636710;225;26501;-66
2022/08/01 03:01:55;;;;;;;2.40;2.30;;;19.20;99.90;;;;;;636566;222;26540;-66
2022/08/01 03:04:23;;;;;;;2.30;2.10;;;19.10;99.90;;;;;;636626;226;26612;-66
2022/08/01 03:06:50;;;;;;;2.25;2.15;;;19.10;99.90;;;;;;636712;225;27392;-66
2022/08/01 03:09:18;;;;;;;2.30;2.20;;;19.10;99.90;;;;;;636688;225;26528;-64
2022/08/01 03:11:45;;;;;;;3.05;2.50;;;19.10;99.90;;;;;;638197;223;26908;-67
2022/08/01 03:14:12;;;;;;;2.40;2.30;;;19.10;99.90;;;;;;637992;221;26529;-66
2022/08/01 03:16:40;;;;;;;2.17;2.08;;;19.20;99.90;;;;;;637752;225;26777;-66
2022/08/01 03:19:07;;;;;;;2.50;2.40;;;19.20;99.90;;;;;;637663;225;26602;-66
2022/08/01 03:21:35;;;;;;;2.03;1.92;;;19.20;99.90;;;;;;637250;225;26597;-66
2022/08/01 03:24:03;;;;;;;2.03;1.92;;;19.20;99.90;;;;;;637319;226;26841;-66
2022/08/01 03:26:30;;;;;;;2.12;2.00;;;19.20;99.90;;;;;;637306;226;26585;-66
2022/08/01 03:28:57;;;;;;;2.20;2.00;;;19.30;99.90;;;;;;637200;225;26825;-66
2022/08/01 03:31:24;;;;;;;2.40;2.20;;;19.30;99.90;;;;;;636896;226;26537;-66
2022/08/01 03:33:52;;;;;;;1.98;1.87;;;19.30;99.90;;;;;;636929;226;26807;-66
2022/08/01 03:36:19;;;;;;;2.40;2.05;;;19.30;99.90;;;;;;637007;226;26905;-66
2022/08/01 03:38:46;;;;;;;2.10;2.00;;;19.30;99.90;;;;;;636866;226;26525;-66
2022/08/01 03:41:13;;;;;;;2.40;2.10;;;19.20;99.90;;;;;;637030;225;26794;-66
2022/08/01 03:43:41;;;;;;;2.30;2.10;;;19.20;99.90;;;;;;636760;226;26538;-66
2022/08/01 03:46:09;;;;;;;2.50;2.40;;;19.30;99.90;;;;;;636341;226;26509;-66
2022/08/01 03:48:36;;;;;;;2.28;2.17;;;19.40;99.90;;;;;;636485;226;26616;-66
2022/08/01 03:51:04;;;;;;;2.35;2.20;;;19.50;99.90;;;;;;636389;226;26931;-66
2022/08/01 03:53:31;;;;;;;2.75;2.55;;;19.50;99.90;;;;;;636667;225;26810;-66
2022/08/01 03:55:58;;;;;;;2.60;2.40;;;19.60;99.90;;;;;;636660;226;26647;-66
2022/08/01 03:58:25;;;;;;;2.45;2.28;;;19.60;99.90;;;;;;636600;225;26822;-66
2022/08/01 04:00:53;;;;;;;3.00;2.05;;;19.70;99.90;;;;;;636675;225;26960;-66
2022/08/01 04:03:21;;;;;;;3.00;2.20;;;19.70;99.90;;;;;;636718;225;26675;-66
2022/08/01 04:05:48;;;;;;;1.92;1.83;;;19.70;99.90;;;;;;636666;225;26821;-67
2022/08/01 04:08:15;;;;;;;2.05;1.95;;;19.80;99.90;;;;;;636735;226;26584;-67
2022/08/01 04:10:42;;;;;;;2.35;2.25;;;19.80;99.90;;;;;;636653;225;27266;-67
2022/08/01 04:13:10;;;;;;;2.10;2.00;;;19.80;99.90;;;;;;636653;226;26561;-67
2022/08/01 04:15:37;;;;;;;2.78;2.30;;;19.90;99.90;;;;;;636717;226;26834;-67
2022/08/01 04:18:04;;;;;;;2.35;2.05;;;19.90;99.90;;;;;;636688;225;26560;-66
2022/08/01 04:20:31;;;;;;;2.00;1.90;;;19.90;99.90;;;;;;636650;225;26856;-66
2022/08/01 04:22:58;;;;;;;2.60;2.40;;;19.90;99.90;;;;;;637955;223;26621;-67
2022/08/01 04:25:26;;;;;;;2.40;2.20;;;19.90;99.90;;;;;;638091;224;26827;-66
2022/08/01 04:27:53;;;;;;;2.97;2.75;;;19.90;99.90;;;;;;637562;225;26585;-67
2022/08/01 04:30:28;;;;;;;2.30;2.20;;;19.90;99.90;;;;;;637605;225;26832;-66
2022/08/01 04:32:55;;;;;;;2.62;2.20;;;20.00;99.90;;;;;;637322;226;26844;-66
2022/08/01 04:35:22;;;;;;;2.12;2.03;;;20.00;99.90;;;;;;637682;222;26522;-66
2022/08/01 04:37:50;;;;;;;2.70;2.50;;;20.10;99.90;;;;;;637433;225;26822;-66
2022/08/01 04:40:17;;;;;;;3.10;2.80;;;20.20;99.90;;;;;;637187;221;26590;-66
2022/08/01 04:42:44;;;;;;;2.47;2.20;;;20.20;99.90;;;;;;636926;226;26533;-66
2022/08/01 04:45:12;;;;;;;2.97;2.72;;;20.20;99.90;;;;;;637076;226;26548;-66
2022/08/01 04:47:38;;;;;;;4.12;3.47;;;20.10;99.90;;;;;;637000;225;26862;-66
2022/08/01 04:50:07;;;;;;;3.97;3.47;;;20.00;99.90;;;;;;637111;225;26541;-67
2022/08/01 04:52:35;;;;;;;3.80;3.42;;;19.90;99.90;;;;;;637086;226;26540;-67
2022/08/01 04:55:02;;;;;;;3.45;3.15;;;19.90;99.90;;;;;;637121;226;26506;-68
2022/08/01 04:57:30;;;;;;;4.55;4.00;;;20.00;99.90;;;;;;637021;226;26537;-68
2022/08/01 04:59:58;;;;;;;3.75;3.45;;;20.00;99.90;;;;;;636820;225;26561;-68
2022/08/01 05:02:28;;;;;;;4.07;3.70;;;19.90;99.90;;;;;;636730;226;26532;-68
2022/08/01 05:04:55;;;;;;;4.03;3.72;;;19.90;99.90;;;;;;636619;226;26549;-67
2022/08/01 05:07:22;;;;;;;5.05;4.65;;;19.90;99.90;;;;;;636861;226;26596;-67
2022/08/01 05:09:50;;;;;;;4.37;3.97;;;19.80;99.90;;;;;;636849;226;26528;-67
2022/08/01 05:12:17;;;;;;;4.00;3.60;;;19.80;99.90;;;;;;636724;226;26596;-67
2022/08/01 05:14:45;;;;;;;4.70;3.78;;;19.70;99.90;;;;;;636844;226;26544;-67
2022/08/01 05:17:12;;;;;;;5.55;4.22;;;19.80;99.90;;;;;;636836;226;26830;-67
2022/08/01 05:19:40;;;;;;;6.00;5.50;;;19.70;99.90;;;;;;636785;226;26608;-67
2022/08/01 05:22:08;;;;;;;5.28;4.45;;;19.70;99.90;;;;;;636775;226;26573;-67
2022/08/01 05:24:37;;;;;;;5.37;4.93;;;19.60;99.90;;;;;;636799;225;26593;-67
2022/08/01 05:27:04;;;;;;;4.43;4.05;;;19.60;99.90;;;;;;636774;225;26539;-67
2022/08/01 05:29:32;;;;;;;3.92;3.62;;;19.60;99.90;;;;;;636809;225;26560;-67
2022/08/01 05:31:59;;;;;;;3.35;3.15;;;19.60;99.90;;;;;;636761;226;26551;-67
2022/08/01 05:34:27;;;;;;;3.65;3.35;;;19.80;99.90;;;;;;638039;223;26618;-67
2022/08/01 05:36:54;;;;;;;4.97;3.35;;;19.90;99.90;;;;;;638216;225;26814;-67
2022/08/01 05:39:21;;;;;;;3.25;2.95;;;19.80;99.90;;;;;;637828;225;26585;-67
2022/08/01 05:41:48;;;;;;;4.00;3.70;;;19.90;99.90;;;;;;637762;225;26915;-67
2022/08/01 05:44:15;;;;;;;5.03;4.28;;;20.00;99.90;;;;;;637391;225;26603;-67
2022/08/01 05:46:43;;;;;;;4.35;3.95;;;20.00;99.90;;;;;;637465;226;26828;-68
2022/08/01 05:49:10;;;;;;;3.83;3.53;;;20.10;99.90;;;;;;637480;225;26597;-68
2022/08/01 05:51:37;;;;;;;4.50;3.47;;;20.10;99.90;;;;;;637282;225;27105;-67
2022/08/01 05:54:04;;;;;;;3.47;3.25;;;20.10;99.90;;;;;;637091;225;26528;-68
2022/08/01 05:56:31;;;;;;;3.40;3.10;;;20.20;99.90;;;;;;637157;225;26795;-68
2022/08/01 05:58:59;;;;;;;3.20;3.00;;;20.50;99.90;;;;;;637154;225;26554;-68
2022/08/01 06:01:27;;;;;;;4.28;2.90;;;20.60;99.90;;;;;;637058;225;26555;-68
2022/08/01 06:03:55;;;;;;;3.15;2.87;;;20.50;99.90;;;;;;637106;226;26554;-67
2022/08/01 06:06:23;;;;;;;3.00;2.80;;;20.40;99.90;;;;;;637095;226;26545;-68
2022/08/01 06:08:51;;;;;;;3.33;3.12;;;20.40;99.90;;;;;;637086;226;26554;-67
2022/08/01 06:11:18;;;;;;;3.58;3.28;;;20.30;99.90;;;;;;636734;225;26536;-67
2022/08/01 06:13:45;;;;;;;5.50;3.35;;;20.40;99.90;;;;;;634251;221;26852;-68
2022/08/01 06:16:13;;;;;;;8.10;3.17;;;20.60;99.90;;;;;;629447;225;26596;-68
2022/08/01 06:18:40;;;;;;;2.72;2.53;;;20.50;99.90;;;;;;625145;229;26839;-68
2022/08/01 06:21:07;;;;;;;2.87;2.67;;;20.40;99.90;;;;;;609170;235;26576;-68
2022/08/01 06:23:34;;;;;;;3.12;2.92;;;20.30;99.90;;;;;;628623;226;26841;-68
2022/08/01 06:26:02;;;;;;;3.15;2.85;;;20.20;99.90;;;;;;625043;225;26605;-69
2022/08/01 06:28:29;;;;;;;4.18;2.58;;;20.20;99.90;;;;;;624770;230;27276;-68
2022/08/01 06:30:58;;;;;;;3.10;2.78;;;20.30;99.90;;;;;;628689;226;26592;-68
2022/08/01 06:33:23;;;;;;;9.68;2.70;;;20.30;99.90;;;;;;626698;226;27320;-68
2022/08/01 06:35:50;;;;;;;3.97;2.37;;;20.20;99.90;;;;;;632942;226;26587;-68
2022/08/01 06:38:17;;;;;;;2.85;2.30;;;20.50;99.90;;;;;;626619;226;26639;-68
2022/08/01 06:40:45;;;;;;;2.90;2.47;;;20.90;99.90;;;;;;630079;226;26526;-68
2022/08/01 06:43:13;;;;;;;2.78;2.58;;;20.90;99.90;;;;;;628870;227;26805;-68
2022/08/01 06:45:41;;;;;;;4.75;2.42;;;20.90;99.90;;;;;;628257;227;26593;-68
2022/08/01 06:48:08;;;;;;;2.15;2.05;;;20.90;99.90;;;;;;632360;225;26940;-69
2022/08/01 06:50:36;;;;;;;2.30;2.15;;;21.00;99.90;;;;;;627672;225;26597;-69
2022/08/01 06:53:03;;;;;;;3.55;2.35;;;21.30;99.90;;;;;;625873;230;26572;-69
2022/08/01 06:55:31;;;;;;;5.65;2.72;;;21.50;99.90;;;;;;610388;234;26590;-69
2022/08/01 06:57:59;;;;;;;2.25;2.03;;;21.50;99.90;;;;;;613159;233;26518;-69
2022/08/01 07:00:27;;;;;;;3.70;2.30;;;21.40;99.90;;;;;;627190;227;26598;-69
2022/08/01 07:02:55;;;;;;;2.60;2.40;;;21.20;99.90;;;;;;634869;225;26589;-69
2022/08/01 07:05:23;;;;;;;3.40;2.30;;;21.20;99.90;;;;;;631030;225;26544;-69
2022/08/01 07:07:51;;;;;;;4.03;2.30;;;21.10;99.90;;;;;;633286;226;26538;-70
2022/08/01 07:10:19;;;;;;;2.72;2.15;;;21.00;99.90;;;;;;625636;225;26537;-70
2022/08/01 07:12:46;;;;;;;3.10;2.10;;;21.00;99.90;;;;;;605866;234;26635;-70
2022/08/01 07:15:14;;;;;;;2.35;2.05;;;20.90;99.90;;;;;;615008;232;26558;-69
2022/08/01 07:17:41;;;;;;;3.25;2.10;;;20.90;99.90;;;;;;611578;233;26801;-70
2022/08/01 07:20:09;;;;;;;7.05;2.22;;;20.90;99.90;;;;;;634260;226;26541;-68
2022/08/01 07:22:36;;;;;;;2.12;2.03;;;21.10;99.90;;;;;;633928;226;26629;-68
2022/08/01 07:25:05;;;;;;;2.20;2.00;;;21.30;99.90;;;;;;627427;226;26819;-68
2022/08/01 07:27:32;;;;;;;7.00;2.35;;;21.10;99.90;;;;;;628429;224;26606;-69
2022/08/01 07:29:59;;;;;;;3.10;2.00;;;20.90;99.90;;;;;;629810;226;27211;-69
2022/08/01 07:32:26;;;;;;;3.62;2.30;;;20.90;99.90;;;;;;625421;226;26581;-69
2022/08/01 07:34:54;;;;;;;3.75;2.35;;;20.80;99.90;;;;;;606068;235;26784;-69
2022/08/01 07:37:21;;;;;;;2.65;1.77;;;20.80;99.90;;;;;;612518;234;26614;-70
2022/08/01 07:39:48;;;;;;;2.65;2.03;;;20.60;99.90;;;;;;610614;234;26906;-70
2022/08/01 07:42:16;;;;;;;2.30;2.10;;;20.50;99.90;;;;;;632198;226;26538;-70
2022/08/01 07:44:44;;;;;;;3.65;1.98;;;20.80;99.90;;;;;;632656;226;26505;-71
2022/08/01 07:47:12;;;;;;;3.92;1.90;;;21.30;99.90;;;;;;607329;235;26579;-70
2022/08/01 07:49:40;;;;;;;1.83;1.70;;;21.40;99.90;;;;;;610555;235;26599;-70
2022/08/01 07:52:07;;;;;;;3.53;2.08;;;21.40;99.90;;;;;;625074;227;26613;-70
2022/08/01 07:54:34;;;;;;;1.75;1.65;;;21.30;99.60;;;;;;627702;227;26569;-70
2022/08/01 07:57:02;;;;;;;4.40;2.12;;;21.40;99.30;;;;;;634738;224;26787;-70
2022/08/01 07:59:29;;;;;;;2.47;1.90;;;21.40;99.40;;;;;;628783;226;26764;-69
2022/08/01 08:01:56;;;;;;;1.90;1.80;;;21.40;99.20;;;;;;626235;229;26838;-70
2022/08/01 08:04:23;;;;;;;1.65;1.55;;;21.30;99.50;;;;;;626112;230;26564;-70
2022/08/01 08:06:50;;;;;;;2.20;2.05;;;21.10;99.70;;;;;;606853;234;26809;-70
2022/08/01 08:09:18;;;;;;;2.12;1.90;;;21.10;99.80;;;;;;611734;234;26633;-69
2022/08/01 08:11:45;;;;;;;4.12;1.80;;;21.10;99.70;;;;;;636783;226;26541;-69
2022/08/01 08:14:12;;;;;;;3.12;2.12;;;20.90;99.90;;;;;;636271;226;26575;-69
2022/08/01 08:16:40;;;;;;;1.70;1.60;;;20.80;99.90;;;;;;632722;226;26773;-69
2022/08/01 08:19:07;;;;;;;1.62;1.52;;;20.70;99.90;;;;;;632953;226;26551;-69
2022/08/01 08:21:34;;;;;;;1.73;1.60;;;20.80;99.90;;;;;;631812;222;26819;-69
2022/08/01 08:26:34;;;;;;;2.37;1.75;;;21.10;99.90;;;;;;629613;225;26611;-69
2022/08/01 08:29:02;;;;;;;1.90;1.80;;;21.80;98.40;;;;;;630281;226;26626;-68
2022/08/01 08:31:30;;;;;;;2.12;1.90;;;21.90;96.90;;;;;;627632;227;26530;-69
2022/08/01 08:33:58;;;;;;;3.22;1.92;;;21.80;96.30;;;;;;624684;230;26602;-69
2022/08/01 08:36:25;;;;;;;1.85;1.75;;;21.80;96.30;;;;;;627979;227;26613;-69
2022/08/01 08:38:52;;;;;;;1.80;1.70;;;21.90;96.10;;;;;;628735;227;26762;-69
2022/08/01 08:41:20;;;;;;;3.67;2.12;;;22.00;95.70;;;;;;608560;235;26822;-69
2022/08/01 08:43:47;;;;;;;2.75;1.90;;;22.30;95.50;;;;;;612806;233;26623;-69
2022/08/01 08:46:14;;;;;;;2.25;1.95;;;22.50;94.70;;;;;;612963;233;26802;-68
2022/08/01 08:48:43;;;;;;;1.92;1.83;;;22.30;93.90;;;;;;632814;226;26587;-68
2022/08/01 08:51:11;;;;;;;1.77;1.62;;;22.00;94.10;;;;;;635197;226;26550;-68
2022/08/01 08:53:39;;;;;;;1.80;1.70;;;21.80;93.90;;;;;;627701;226;26592;-69
2022/08/01 08:56:07;;;;;;;2.53;2.12;;;21.80;94.00;;;;;;624555;228;26592;-68
2022/08/01 08:58:37;;;;;;;1.92;1.80;;;21.80;94.00;;;;;;625105;230;26592;-69
2022/08/01 09:01:01;;;;;;;1.70;1.60;;;21.80;93.60;;;;;;605502;236;26870;-69
2022/08/01 09:03:29;;;;;;;1.90;1.80;;;22.40;92.50;;;;;;626356;226;26601;-69
2022/08/01 09:05:56;;;;;;;1.90;1.80;;;22.30;92.50;;;;;;636128;225;26559;-69
2022/08/01 09:08:23;;;;;;;2.20;1.80;;;22.70;91.60;;;;;;633413;222;26544;-69
2022/08/01 09:10:51;;;;;;;2.78;2.00;;;23.10;90.60;;;;;;632413;225;26806;-69
2022/08/01 09:13:18;;;;;;;2.33;2.12;;;23.20;89.50;;;;;;626410;229;26559;-69
2022/08/01 09:15:50;;;;;;;2.00;1.90;;;23.30;87.40;;;;;;625524;226;26802;-69
2022/08/01 09:18:29;;;;;;;4.20;1.90;;;23.30;86.40;;;;;;621664;231;26836;-70
2022/08/01 09:21:13;;;;;;;2.05;1.87;;;23.30;86.30;;;;;;634548;226;26897;-70
2022/08/01 09:23:42;;;;;;;2.08;1.98;;;22.90;87.20;;;;;;634534;227;26625;-69
2022/08/01 09:26:09;;;;;;;2.00;1.58;;;22.80;88.00;;;;;;631006;227;26807;-70
2022/08/01 09:28:37;;;;;;;1.80;1.70;;;22.90;87.70;;;;;;626655;226;26553;-70
2022/08/01 09:31:07;;;;;;;2.58;1.98;;;22.80;86.80;;;;;;607575;235;26603;-70
2022/08/01 09:33:46;;;;;;;1.73;1.52;;;22.80;86.90;;;;;;631463;224;26871;-70
2022/08/01 09:36:14;;;;;;;1.62;1.52;;;22.70;89.10;;;;;;622802;230;26618;-70
2022/08/01 09:38:42;;;;;;;1.92;1.83;;;22.60;89.00;;;;;;630789;226;26557;-70
2022/08/01 09:41:11;;;;;;;1.70;1.60;;;22.50;90.00;;;;;;630221;227;26836;-71
2022/08/01 09:43:36;;;;;;;1.60;1.50;;;22.40;90.40;;;;;;627144;227;26829;-71
2022/08/01 09:46:10;;;;;;;1.50;1.40;;;22.30;90.80;;;;;;625692;227;26827;-71
2022/08/01 09:48:39;;;;;;;1.45;1.37;;;22.00;91.40;;;;;;633906;227;26590;-70
2022/08/01 09:51:04;;;;;;;2.00;1.62;;;22.50;91.10;;;;;;628879;227;26609;-70
2022/08/01 09:53:41;;;;;;;1.92;1.30;;;22.50;91.10;;;;;;631272;227;26608;-70
2022/08/01 09:56:10;;;;;;;2.15;1.73;;;22.70;90.70;;;;;;631917;226;26610;-70
2022/08/01 09:58:49;;;;;;;3.20;1.87;;;22.50;90.60;;;;;;624675;226;26607;-70
2022/08/01 10:01:16;;;;;;;2.90;1.40;;;22.50;90.40;;;;;;630840;225;26551;-70
2022/08/01 10:03:44;;;;;;;2.45;1.60;;;22.60;90.00;;;;;;629287;225;26585;-70
2022/08/01 10:06:19;;;;;;;2.12;1.65;;;22.70;90.10;;;;;;633174;227;26893;-70
2022/08/01 10:08:46;;;;;;;2.72;1.50;;;22.70;90.20;;;;;;630578;227;26605;-69
2022/08/01 10:11:13;;;;;;;1.90;1.70;;;22.50;90.70;;;;;;624892;226;26871;-69
2022/08/01 10:13:40;;;;;;;1.65;1.50;;;22.50;90.60;;;;;;624548;229;26597;-70
2022/08/01 10:16:08;;;;;;;1.70;1.60;;;22.70;90.60;;;;;;624442;230;26845;-71
2022/08/01 10:18:35;;;;;;;2.03;1.45;;;22.60;90.40;;;;;;612649;234;26566;-71
2022/08/01 10:21:02;;;;;;;2.33;1.33;;;22.60;90.30;;;;;;634075;225;26935;-69
2022/08/01 10:23:30;;;;;;;1.45;1.35;;;22.50;90.60;;;;;;626007;229;26623;-70
2022/08/01 10:25:57;;;;;;;1.60;1.50;;;22.50;90.50;;;;;;625473;226;26561;-70
2022/08/01 10:28:25;;;;;;;1.52;1.40;;;22.30;91.00;;;;;;625340;230;26612;-70
2022/08/01 10:30:53;;;;;;;2.37;1.70;;;22.30;91.00;;;;;;612599;234;26574;-70
2022/08/01 10:33:22;;;;;;;1.62;1.42;;;22.30;91.00;;;;;;615887;232;26586;-69
2022/08/01 10:35:49;;;;;;;2.08;1.30;;;22.40;91.10;;;;;;625803;229;26583;-69
2022/08/01 10:38:17;;;;;;;2.35;1.70;;;22.60;90.90;;;;;;625145;230;26607;-69
2022/08/01 10:40:44;;;;;;;5.87;1.77;;;22.50;90.70;;;;;;609801;235;26568;-69
2022/08/01 10:43:11;;;;;;;3.05;1.50;;;22.50;90.60;;;;;;612731;233;27406;-70
2022/08/01 10:45:38;;;;;;;6.72;1.60;;;22.80;90.30;;;;;;613224;233;26596;-70
2022/08/01 10:48:06;;;;;;;1.55;1.40;;;22.80;89.90;;;;;;613285;233;26798;-70
2022/08/01 10:50:34;;;;;;;3.60;2.00;;;22.80;89.50;;;;;;612845;234;26586;-70
2022/08/01 10:53:06;;;;;;;4.53;1.67;;;22.80;89.00;;;;;;613026;234;26625;-70
2022/08/01 10:55:45;;;;;;;1.62;1.50;;;22.60;89.70;;;;;;612976;233;26618;-68
2022/08/01 10:58:12;;;;;;;2.60;1.98;;;22.60;89.40;;;;;;612638;234;26602;-68
2022/08/01 11:00:40;;;;;;;7.32;1.70;;;22.60;90.20;;;;;;612777;234;26655;-68
2022/08/01 11:03:08;;;;;;;3.17;1.77;;;22.80;90.20;;;;;;612790;235;26642;-68
2022/08/01 11:05:36;;;;;;;4.18;1.55;;;23.30;89.30;;;;;;612817;235;26615;-68
2022/08/01 11:08:04;;;;;;;5.18;1.95;;;23.20;89.20;;;;;;612854;233;26666;-68
2022/08/01 11:10:32;;;;;;;3.42;1.37;;;23.30;87.30;;;;;;612551;234;26856;-68
2022/08/01 11:13:03;;;;;;;2.75;1.80;;;23.60;86.80;;;;;;612314;234;26616;-69
2022/08/01 11:15:28;;;;;;;3.37;1.55;;;23.50;85.30;;;;;;612652;234;26785;-69
2022/08/01 11:17:55;;;;;;;3.55;1.80;;;23.30;86.20;;;;;;612830;234;27274;-69
2022/08/01 11:20:24;;;;;;;2.40;1.50;;;22.90;87.20;;;;;;612829;233;26614;-69
2022/08/01 11:23:13;;;;;;;2.95;1.30;;;22.60;87.70;;;;;;612838;233;26641;-68
2022/08/01 11:26:09;;;;;;;6.40;1.75;;;22.30;89.20;;;;;;611703;233;26653;-68
2022/08/01 11:28:37;;;;;;;4.75;1.70;;;22.00;91.40;;;;;;612671;234;26627;-68
2022/08/01 11:31:25;;;;;;;2.65;1.48;;;21.70;93.70;;;;;;612913;232;26820;-68
2022/08/01 11:33:53;;;;;;;1.20;1.20;;;21.50;95.50;;;;;;613503;233;26977;-68
2022/08/01 11:36:21;;;;;;;2.50;1.27;;;21.40;96.40;;;;;;613905;232;26573;-68
2022/08/01 11:38:48;;;;;;;5.65;1.62;;;21.60;96.20;;;;;;613734;233;26787;-69
2022/08/01 11:41:21;;;;;;;1.42;1.08;;;21.90;95.10;;;;;;613477;233;26578;-69
2022/08/01 11:43:55;;;;;;;1.90;1.40;;;21.90;95.10;;;;;;613210;234;26587;-69
2022/08/01 11:46:33;;;;;;;2.40;1.10;;;21.90;94.70;;;;;;613380;234;26789;-69
2022/08/01 11:49:25;;;;;;;3.28;1.33;;;22.40;93.40;;;;;;613432;234;26559;-69
2022/08/01 11:52:00;;;;;;;1.73;1.23;;;22.30;93.30;;;;;;613078;234;26609;-69
2022/08/01 11:54:29;;;;;;;2.25;1.35;;;22.80;92.00;;;;;;613047;233;26656;-69
2022/08/01 11:56:56;;;;;;;3.65;1.62;;;22.80;92.00;;;;;;613141;235;27313;-69
2022/08/01 11:59:23;;;;;;;2.55;1.27;;;23.30;90.90;;;;;;613144;233;26623;-69
2022/08/01 12:01:50;;;;;;;2.42;1.40;;;23.60;89.70;;;;;;612996;234;26847;-69
2022/08/01 12:04:17;;;;;;;1.30;1.20;;;23.90;87.80;;;;;;613141;235;26649;-69
2022/08/01 12:06:45;;;;;;;1.12;1.05;;;24.40;85.90;;;;;;613151;233;26841;-68
2022/08/01 12:09:18;;;;;;;2.28;1.30;;;24.50;83.40;;;;;;612883;234;26608;-68
2022/08/01 12:11:45;;;;;;;1.20;1.10;;;25.20;80.50;;;;;;612560;233;26615;-68
2022/08/01 12:14:20;;;;;;;2.12;0.90;;;25.50;79.20;;;;;;612815;233;26644;-68
2022/08/01 12:16:48;;;;;;;1.40;1.30;;;25.40;79.10;;;;;;612187;234;26631;-68
2022/08/01 12:19:23;;;;;;;1.55;1.15;;;25.50;79.00;;;;;;612795;233;26619;-68
2022/08/01 12:22:03;;;;;;;1.60;1.23;;;25.00;78.10;;;;;;612793;234;26890;-68
2022/08/01 12:24:30;;;;;;;2.65;1.17;;;24.70;79.00;;;;;;612808;228;26613;-67
2022/08/01 12:26:57;;;;;;;1.23;1.12;;;24.30;80.40;;;;;;612849;235;26631;-68
2022/08/01 12:29:32;;;;;;;1.00;1.00;;;24.00;81.40;;;;;;612919;235;26843;-67
2022/08/01 12:32:00;;;;;;;0.82;0.82;;;24.10;83.00;;;;;;612854;235;26647;-68
2022/08/01 12:34:28;;;;;;;2.83;1.10;;;24.10;83.00;;;;;;612847;233;26646;-68
2022/08/01 12:36:57;;;;;;;2.67;1.33;;;24.50;81.30;;;;;;612815;235;26635;-68
2022/08/01 12:39:30;;;;;;;1.30;1.20;;;24.40;80.40;;;;;;612756;234;26658;-68
2022/08/01 12:41:57;;;;;;;1.30;1.20;;;24.40;80.40;;;;;;612728;234;26584;-68
2022/08/01 12:44:24;;;;;;;2.00;1.20;;;24.40;80.80;;;;;;614173;232;26647;-68
2022/08/01 12:46:51;;;;;;;1.30;1.20;;;25.00;80.60;;;;;;614025;233;26570;-68
2022/08/01 12:49:18;;;;;;;0.85;0.85;;;25.20;77.90;;;;;;613688;233;26807;-68
2022/08/01 12:51:45;;;;;;;0.98;0.98;;;25.60;76.60;;;;;;613665;233;26630;-68
2022/08/01 12:54:13;;;;;;;1.05;1.05;;;25.70;76.00;;;;;;613406;233;26773;-68
2022/08/01 12:56:40;;;;;;;1.12;1.02;;;25.70;74.20;;;;;;613355;234;26558;-68